Sandy Hill, Louisiana
Current Conditions -  °F | °C
As of 8:43 PM on Sunday 21 Dec 2014 (Local Time) from KPOE Reporting Station
Overcast Overcast  
Wind Chill: 46°   Ceiling: 400
Heat Index: 48°   Visibility: 10mi
Dew Point: 48°   Wind: 6mph
Humidity: 100%   Direction: 170°S
Pressure: 29.95"   Gusts: NA
Location:  31.2063°N, 93.1344°W
Report Text: KPOE 220243Z AUTO 17005KT 10SM OVC004 09/09 A2995 RMK AO2
Loading
Personal Weather Stations






























Interactive Weather Map New forecast layout! Learn more

10-Day Weather Forecast

Advertisements
Track Severe Weather on mobile